• Join FlightAware (Why Join?)
  • Login
  • US Flag 
03:01PM EST


 

Airport Tracker/Info


-or-


 

Live Flight TrackerFlight Track Log ✈ N33SW ✈ 07-May-2013 ✈ KMBO - KMEI

Flight Track Log - Related Links

Times and Time Zones

All times are in EDT time to prevent confusion due to time zone crossing. See the N33SW flight status page for this flight to view local times or setup timezone preferences in your user account.

Time Position Orientation Groundspeed Altitude Reporting Facility
EDT Latitude Longitude Course Direction KTS MPH feet Rate Location/Type
08:28PM 32.4586 -90.0767 94° East 169 194 1,900  Level Memphis Center
08:29PM 32.4544 -90.0103 94° East 213 245 4,500 2,460 Climbing Memphis Center
08:30PM 32.4478 -89.9461 97° East 220 253 6,900 1,200 Climbing Memphis Center
08:31PM 32.4414 -89.8575 95° East 229 264 7,000  Climbing Memphis Center
08:32PM 32.4325 -89.7692 97° East 258 297 7,000  Level Memphis Center
08:33PM 32.4236 -89.6831 97° East 263 303 7,000  Level Memphis Center
08:34PM 32.4169 -89.5994 95° East 263 303 7,000  Level Memphis Center
08:35PM 32.4081 -89.5183 97° East 252 290 7,000  Level Memphis Center
08:36PM 32.4014 -89.4419 96° East 252 290 7,000  Level Memphis Center
08:37PM 32.3964 -89.3608 94° East 252 290 7,000  Level Memphis Center
08:38PM 32.3875 -89.2847 98° East 252 290 7,000  Level Memphis Center
08:39PM 32.3806 -89.2086 96° East 246 283 7,000 -60 Level Memphis Center
08:40PM 32.3653 -89.1400 105° East 228 262 6,900 -540 Descending Memphis Center
08:41PM 32.3356 -89.0764 119° Southeast 217 250 6,000 -900 Descending Memphis Center
08:42PM 32.3078 -89.0203 120° Southeast 206 237 5,100 -900 Descending Memphis Center
08:43PM 32.2819 -88.9642 119° Southeast 196 226 4,200 -900 Descending Memphis Center
08:44PM 32.2419 -88.9206 137° Southeast 196 226 3,300 -900 Descending Memphis Center
08:45PM 32.1956 -88.8794 143° Southeast 196 226 2,400 -660 Descending Memphis Center
08:46PM 32.1883 -88.8158 98° East 189 217 2,000 -240 Descending Memphis Center
08:47PM 32.2214 -88.7736 47° Northeast 144 166 2,000  Level Memphis Center
08:48PM 32.2247 -88.7244 85° East 134 154 2,000  Level Memphis Center
08:53PM 32.3167 -88.7500 North  Level FlightAware Approximate
09:00PM 32.3326 -88.7519 North  Level Estimated
09:01PM 32.3326 -88.7519 North  Level Estimated
09:02PM 32.3326 -88.7519 North  Level Estimated
09:03PM 32.3326 -88.7519 North  Level Estimated
09:04PM 32.3326 -88.7519 North  Level Estimated
09:05PM 32.3326 -88.7519 North  Level Estimated